Garforth, United Kingdom
Current Conditions -  °F | °C
As of 9:20 AM on Wednesday 22 Oct 2014 (Local Time) from EGNM Reporting Station
Scattered Clouds Scattered Clouds  
Wind Chill: 42°   Ceiling: Unl
Heat Index: 48°   Visibility: 6mi
Dew Point: 45°   Wind: 15mph
Humidity: 87%   Direction: 280°W
Pressure: 30.18"   Gusts: NA
Location:  53.79°N, 1.38°W
Report Text: EGNM 220820Z 28013KT 240V320 9999 FEW015 SCT030 09/07 Q1022
Loading
Personal Weather Stations






























Interactive Weather Map
Tropical Storm Tracking
New forecast layout! Learn more

10-Day Weather Forecast

Advertisements
Track Severe Weather on mobile